sensor_id;sensor_type;location;lat;lon;timestamp;pressure;altitude;pressure_sealevel;temperature;humidity
4012;BME280;2020;48.682;9.024;2023-05-07T00:01:13;96345.53;;;12.87;81.75
4012;BME280;2020;48.682;9.024;2023-05-07T00:03:38;96341.94;;;12.89;81.37
4012;BME280;2020;48.682;9.024;2023-05-07T00:06:04;96345.19;;;12.91;81.70
4012;BME280;2020;48.682;9.024;2023-05-07T00:08:29;96344.03;;;12.93;81.41
4012;BME280;2020;48.682;9.024;2023-05-07T00:10:55;96341.31;;;12.86;81.21
4012;BME280;2020;48.682;9.024;2023-05-07T00:13:20;96341.00;;;12.81;81.73
4012;BME280;2020;48.682;9.024;2023-05-07T00:15:45;96340.19;;;12.81;82.12
4012;BME280;2020;48.682;9.024;2023-05-07T00:18:10;96337.06;;;12.85;82.23
4012;BME280;2020;48.682;9.024;2023-05-07T00:20:36;96332.97;;;12.83;81.94
4012;BME280;2020;48.682;9.024;2023-05-07T00:23:01;96332.19;;;12.82;82.17
4012;BME280;2020;48.682;9.024;2023-05-07T00:25:26;96335.78;;;12.81;82.14
4012;BME280;2020;48.682;9.024;2023-05-07T00:27:52;96332.19;;;12.82;82.11
4012;BME280;2020;48.682;9.024;2023-05-07T00:30:17;96331.53;;;12.80;82.32
4012;BME280;2020;48.682;9.024;2023-05-07T00:32:42;96337.63;;;12.72;83.08
4012;BME280;2020;48.682;9.024;2023-05-07T00:35:10;96333.22;;;12.73;82.60
4012;BME280;2020;48.682;9.024;2023-05-07T00:37:36;96332.28;;;12.66;83.13
4012;BME280;2020;48.682;9.024;2023-05-07T00:40:01;96330.81;;;12.63;83.51
4012;BME280;2020;48.682;9.024;2023-05-07T00:42:29;96318.78;;;12.54;83.70
4012;BME280;2020;48.682;9.024;2023-05-07T00:44:55;96317.16;;;12.53;84.06
4012;BME280;2020;48.682;9.024;2023-05-07T00:47:20;96317.31;;;12.60;83.77
4012;BME280;2020;48.682;9.024;2023-05-07T00:49:45;96308.81;;;12.57;83.57
4012;BME280;2020;48.682;9.024;2023-05-07T00:52:13;96314.03;;;12.57;83.99
4012;BME280;2020;48.682;9.024;2023-05-07T00:54:40;96312.72;;;12.62;83.95
4012;BME280;2020;48.682;9.024;2023-05-07T00:57:06;96313.22;;;12.57;83.98
4012;BME280;2020;48.682;9.024;2023-05-07T00:59:32;96312.41;;;12.56;84.07
4012;BME280;2020;48.682;9.024;2023-05-07T01:01:58;96316.00;;;12.55;84.02
4012;BME280;2020;48.682;9.024;2023-05-07T01:04:23;96314.38;;;12.54;84.53
4012;BME280;2020;48.682;9.024;2023-05-07T01:06:49;96315.06;;;12.48;84.19
4012;BME280;2020;48.682;9.024;2023-05-07T01:09:15;96316.34;;;12.52;84.98
4012;BME280;2020;48.682;9.024;2023-05-07T01:11:40;96314.72;;;12.51;84.55
4012;BME280;2020;48.682;9.024;2023-05-07T01:14:07;96316.34;;;12.52;85.00
4012;BME280;2020;48.682;9.024;2023-05-07T01:16:33;96311.00;;;12.46;84.40
4012;BME280;2020;48.682;9.024;2023-05-07T01:18:59;96311.19;;;12.36;85.24
4012;BME280;2020;48.682;9.024;2023-05-07T01:21:26;96312.81;;;12.37;85.74
4012;BME280;2020;48.682;9.024;2023-05-07T01:23:52;96312.19;;;12.35;85.80
4012;BME280;2020;48.682;9.024;2023-05-07T01:26:18;96313.19;;;12.25;86.10
4012;BME280;2020;48.682;9.024;2023-05-07T01:28:45;96313.50;;;12.31;85.55
4012;BME280;2020;48.682;9.024;2023-05-07T01:31:11;96312.56;;;12.23;85.76
4012;BME280;2020;48.682;9.024;2023-05-07T01:33:37;96311.53;;;12.33;85.69
4012;BME280;2020;48.682;9.024;2023-05-07T01:36:04;96304.00;;;12.38;85.21
4012;BME280;2020;48.682;9.024;2023-05-07T01:38:31;96310.75;;;12.32;85.80
4012;BME280;2020;48.682;9.024;2023-05-07T01:40:58;96318.38;;;12.34;85.58
4012;BME280;2020;48.682;9.024;2023-05-07T01:43:23;96316.16;;;12.22;86.19
4012;BME280;2020;48.682;9.024;2023-05-07T01:45:49;96314.88;;;12.18;86.63
4012;BME280;2020;48.682;9.024;2023-05-07T01:48:15;96314.41;;;12.14;86.76
4012;BME280;2020;48.682;9.024;2023-05-07T01:50:41;96314.09;;;12.09;86.86
4012;BME280;2020;48.682;9.024;2023-05-07T01:53:07;96309.38;;;12.05;87.42
4012;BME280;2020;48.682;9.024;2023-05-07T01:55:33;96305.78;;;12.06;86.74
4012;BME280;2020;48.682;9.024;2023-05-07T01:57:58;96315.22;;;11.98;87.86
4012;BME280;2020;48.682;9.024;2023-05-07T02:00:24;96311.97;;;11.96;87.78
4012;BME280;2020;48.682;9.024;2023-05-07T02:02:49;96310.34;;;11.95;87.42
4012;BME280;2020;48.682;9.024;2023-05-07T02:05:14;96312.31;;;11.93;87.53
4012;BME280;2020;48.682;9.024;2023-05-07T02:07:40;96311.97;;;11.96;87.29
4012;BME280;2020;48.682;9.024;2023-05-07T02:10:05;96310.19;;;11.97;87.02
4012;BME280;2020;48.682;9.024;2023-05-07T02:12:31;96314.13;;;12.01;86.44
4012;BME280;2020;48.682;9.024;2023-05-07T02:14:56;96310.34;;;11.95;87.16
4012;BME280;2020;48.682;9.024;2023-05-07T02:17:21;96312.97;;;11.95;87.39
4012;BME280;2020;48.682;9.024;2023-05-07T02:19:47;96309.72;;;11.85;87.68
4012;BME280;2020;48.682;9.024;2023-05-07T02:22:12;96310.06;;;11.82;87.79
4012;BME280;2020;48.682;9.024;2023-05-07T02:24:37;96310.06;;;11.82;87.61
4012;BME280;2020;48.682;9.024;2023-05-07T02:27:03;96309.72;;;11.85;88.01
4012;BME280;2020;48.682;9.024;2023-05-07T02:29:28;96306.13;;;11.86;87.61
4012;BME280;2020;48.682;9.024;2023-05-07T02:31:53;96314.78;;;11.78;87.52
4012;BME280;2020;48.682;9.024;2023-05-07T02:34:19;96323.09;;;11.82;87.83
4012;BME280;2020;48.682;9.024;2023-05-07T02:36:45;96319.53;;;11.75;87.28
4012;BME280;2020;48.682;9.024;2023-05-07T02:39:11;96319.03;;;11.71;88.20
4012;BME280;2020;48.682;9.024;2023-05-07T02:41:37;96320.53;;;11.65;88.64
4012;BME280;2020;48.682;9.024;2023-05-07T02:44:02;96315.31;;;11.65;88.61
4012;BME280;2020;48.682;9.024;2023-05-07T02:46:27;96320.22;;;11.52;88.54
4012;BME280;2020;48.682;9.024;2023-05-07T02:48:53;96318.59;;;11.51;88.91
4012;BME280;2020;48.682;9.024;2023-05-07T02:51:22;96317.75;;;11.50;88.87
4012;BME280;2020;48.682;9.024;2023-05-07T02:53:48;96318.09;;;11.47;88.99
4012;BME280;2020;48.682;9.024;2023-05-07T02:56:13;96311.13;;;11.39;89.29
4012;BME280;2020;48.682;9.024;2023-05-07T02:58:38;96306.22;;;11.36;89.00
4012;BME280;2020;48.682;9.024;2023-05-07T03:01:09;96298.75;;;11.33;89.65
4012;BME280;2020;48.682;9.024;2023-05-07T03:03:35;96298.41;;;11.36;89.49
4012;BME280;2020;48.682;9.024;2023-05-07T03:06:01;96299.72;;;11.32;88.77
4012;BME280;2020;48.682;9.024;2023-05-07T03:08:26;96288.97;;;11.35;88.42
4012;BME280;2020;48.682;9.024;2023-05-07T03:10:51;96299.06;;;11.38;88.32
4012;BME280;2020;48.682;9.024;2023-05-07T03:13:17;96287.50;;;11.33;88.37
4012;BME280;2020;48.682;9.024;2023-05-07T03:15:42;96286.38;;;11.27;88.26
4012;BME280;2020;48.682;9.024;2023-05-07T03:18:08;96290.59;;;11.20;89.19
4012;BME280;2020;48.682;9.024;2023-05-07T03:20:33;96294.50;;;11.16;89.35
4012;BME280;2020;48.682;9.024;2023-05-07T03:22:59;96293.84;;;11.14;89.43
4012;BME280;2020;48.682;9.024;2023-05-07T03:25:24;96294.81;;;11.12;89.04
4012;BME280;2020;48.682;9.024;2023-05-07T03:27:50;96289.94;;;11.09;89.20
4012;BME280;2020;48.682;9.024;2023-05-07T03:30:15;96295.47;;;11.06;89.74
4012;BME280;2020;48.682;9.024;2023-05-07T03:32:40;96299.38;;;11.02;88.97
4012;BME280;2020;48.682;9.024;2023-05-07T03:35:06;96292.22;;;11.04;89.02
4012;BME280;2020;48.682;9.024;2023-05-07T03:37:31;96294.50;;;10.99;89.02
4012;BME280;2020;48.682;9.024;2023-05-07T03:39:57;96288.31;;;10.92;89.97
4012;BME280;2020;48.682;9.024;2023-05-07T03:42:22;96295.66;;;10.96;89.88
4012;BME280;2020;48.682;9.024;2023-05-07T03:44:47;96291.22;;;10.97;89.95
4012;BME280;2020;48.682;9.024;2023-05-07T03:47:13;96292.53;;;11.01;89.38
4012;BME280;2020;48.682;9.024;2023-05-07T03:49:38;96292.53;;;11.01;89.54
4012;BME280;2020;48.682;9.024;2023-05-07T03:52:04;96293.19;;;10.95;89.47
4012;BME280;2020;48.682;9.024;2023-05-07T03:54:30;96295.78;;;10.87;89.66
4012;BME280;2020;48.682;9.024;2023-05-07T03:56:55;96296.44;;;10.80;89.23
4012;BME280;2020;48.682;9.024;2023-05-07T03:59:21;96292.53;;;10.76;89.62
4012;BME280;2020;48.682;9.024;2023-05-07T04:01:46;96286.97;;;10.71;89.88
4012;BME280;2020;48.682;9.024;2023-05-07T04:04:12;96288.94;;;10.69;89.55
4012;BME280;2020;48.682;9.024;2023-05-07T04:06:37;96287.31;;;10.68;89.65
4012;BME280;2020;48.682;9.024;2023-05-07T04:09:02;96302.28;;;10.74;89.36
4012;BME280;2020;48.682;9.024;2023-05-07T04:11:28;96303.75;;;10.77;89.10
4012;BME280;2020;48.682;9.024;2023-05-07T04:13:53;96304.56;;;10.77;89.08
4012;BME280;2020;48.682;9.024;2023-05-07T04:16:18;96308.63;;;10.72;88.51
4012;BME280;2020;48.682;9.024;2023-05-07T04:18:44;96311.34;;;10.53;89.13
4012;BME280;2020;48.682;9.024;2023-05-07T04:21:16;96314.59;;;10.56;90.77
4012;BME280;2020;48.682;9.024;2023-05-07T04:23:42;96318.97;;;10.55;90.37
4012;BME280;2020;48.682;9.024;2023-05-07T04:26:07;96321.13;;;10.60;90.77
4012;BME280;2020;48.682;9.024;2023-05-07T04:28:34;96318.84;;;10.65;89.73
4012;BME280;2020;48.682;9.024;2023-05-07T04:30:59;96318.84;;;10.65;89.50
4012;BME280;2020;48.682;9.024;2023-05-07T04:33:24;96310.72;;;10.60;90.62
4012;BME280;2020;48.682;9.024;2023-05-07T04:35:50;96305.19;;;10.63;90.48
4012;BME280;2020;48.682;9.024;2023-05-07T04:38:15;96305.19;;;10.63;90.28
4012;BME280;2020;48.682;9.024;2023-05-07T04:40:41;96307.47;;;10.58;90.54
4012;BME280;2020;48.682;9.024;2023-05-07T04:43:07;96313.16;;;10.61;89.89
4012;BME280;2020;48.682;9.024;2023-05-07T04:45:34;96307.78;;;10.63;90.63
4012;BME280;2020;48.682;9.024;2023-05-07T04:47:59;96320.50;;;10.66;90.40
4012;BME280;2020;48.682;9.024;2023-05-07T04:50:25;96315.94;;;10.68;89.73
4012;BME280;2020;48.682;9.024;2023-05-07T04:52:50;96313.78;;;10.55;91.10
4012;BME280;2020;48.682;9.024;2023-05-07T04:55:16;96323.06;;;10.58;91.83
4012;BME280;2020;48.682;9.024;2023-05-07T04:57:41;96325.50;;;10.59;91.92
4012;BME280;2020;48.682;9.024;2023-05-07T05:00:07;96323.75;;;10.68;91.04
4012;BME280;2020;48.682;9.024;2023-05-07T05:02:34;96322.13;;;10.67;90.65
4012;BME280;2020;48.682;9.024;2023-05-07T05:05:00;96326.34;;;10.68;90.86
4012;BME280;2020;48.682;9.024;2023-05-07T05:07:26;96340.34;;;10.75;90.90
4012;BME280;2020;48.682;9.024;2023-05-07T05:09:51;96344.69;;;10.58;91.58
4012;BME280;2020;48.682;9.024;2023-05-07T05:12:17;96340.28;;;10.50;92.43
4012;BME280;2020;48.682;9.024;2023-05-07T05:14:42;96345.19;;;10.62;92.60
4012;BME280;2020;48.682;9.024;2023-05-07T05:17:08;96342.66;;;10.87;91.74
4012;BME280;2020;48.682;9.024;2023-05-07T05:19:33;96339.09;;;11.04;91.15
4012;BME280;2020;48.682;9.024;2023-05-07T05:21:58;96348.53;;;11.22;90.17
4012;BME280;2020;48.682;9.024;2023-05-07T05:24:26;96349.88;;;11.34;88.40
4012;BME280;2020;48.682;9.024;2023-05-07T05:26:53;96355.41;;;11.48;89.04
4012;BME280;2020;48.682;9.024;2023-05-07T05:29:18;96357.69;;;11.59;88.93
4012;BME280;2020;48.682;9.024;2023-05-07T05:31:43;96358.00;;;11.64;88.78
4012;BME280;2020;48.682;9.024;2023-05-07T05:34:08;96366.78;;;11.72;88.89
4012;BME280;2020;48.682;9.024;2023-05-07T05:36:34;96361.88;;;11.85;88.05
4012;BME280;2020;48.682;9.024;2023-05-07T05:38:59;96361.56;;;11.88;87.60
4012;BME280;2020;48.682;9.024;2023-05-07T05:41:24;96362.84;;;11.92;87.80
4012;BME280;2020;48.682;9.024;2023-05-07T05:43:50;96359.25;;;12.02;87.46
4012;BME280;2020;48.682;9.024;2023-05-07T05:46:15;96357.63;;;12.09;86.76
4012;BME280;2020;48.682;9.024;2023-05-07T05:48:40;96344.88;;;12.14;86.05
4012;BME280;2020;48.682;9.024;2023-05-07T05:51:05;96358.56;;;12.16;82.65
4012;BME280;2020;48.682;9.024;2023-05-07T05:53:31;96364.69;;;12.40;84.59
4012;BME280;2020;48.682;9.024;2023-05-07T05:55:56;96360.97;;;12.34;85.28
4012;BME280;2020;48.682;9.024;2023-05-07T05:58:21;96366.13;;;12.51;85.69
4012;BME280;2020;48.682;9.024;2023-05-07T06:00:47;96370.38;;;12.83;84.45
4012;BME280;2020;48.682;9.024;2023-05-07T06:03:13;96368.41;;;13.09;83.27
4012;BME280;2020;48.682;9.024;2023-05-07T06:05:38;96370.41;;;13.30;83.25
4012;BME280;2020;48.682;9.024;2023-05-07T06:08:04;96360.19;;;13.43;80.78
4012;BME280;2020;48.682;9.024;2023-05-07T06:10:29;96358.19;;;13.69;81.66
4012;BME280;2020;48.682;9.024;2023-05-07T06:12:55;96364.22;;;13.69;82.24
4012;BME280;2020;48.682;9.024;2023-05-07T06:15:20;96364.78;;;13.80;80.28
4012;BME280;2020;48.682;9.024;2023-05-07T06:17:46;96368.59;;;13.92;79.98
4012;BME280;2020;48.682;9.024;2023-05-07T06:20:11;96369.34;;;14.16;79.39
4012;BME280;2020;48.682;9.024;2023-05-07T06:22:36;96358.94;;;14.38;78.40
4012;BME280;2020;48.682;9.024;2023-05-07T06:25:02;96364.97;;;14.53;78.56
4012;BME280;2020;48.682;9.024;2023-05-07T06:27:27;96362.00;;;14.56;77.53
4012;BME280;2020;48.682;9.024;2023-05-07T06:29:53;96361.00;;;14.57;76.33
4012;BME280;2020;48.682;9.024;2023-05-07T06:32:18;96372.00;;;14.68;75.77
4012;BME280;2020;48.682;9.024;2023-05-07T06:34:43;96368.94;;;14.79;76.28
4012;BME280;2020;48.682;9.024;2023-05-07T06:37:09;96366.88;;;14.74;74.79
4012;BME280;2020;48.682;9.024;2023-05-07T06:39:34;96374.00;;;14.66;75.92
4012;BME280;2020;48.682;9.024;2023-05-07T06:42:00;96366.75;;;14.68;76.05
4012;BME280;2020;48.682;9.024;2023-05-07T06:44:25;96361.69;;;14.81;74.45
4012;BME280;2020;48.682;9.024;2023-05-07T06:46:51;96359.97;;;15.10;73.78
4012;BME280;2020;48.682;9.024;2023-05-07T06:49:16;96369.72;;;15.16;72.78
4012;BME280;2020;48.682;9.024;2023-05-07T06:51:41;96365.06;;;15.33;72.80
4012;BME280;2020;48.682;9.024;2023-05-07T06:54:07;96357.50;;;15.45;73.16
4012;BME280;2020;48.682;9.024;2023-05-07T06:56:33;96350.69;;;15.79;72.97
4012;BME280;2020;48.682;9.024;2023-05-07T06:59:00;96359.22;;;16.17;71.80
4012;BME280;2020;48.682;9.024;2023-05-07T07:01:25;96354.28;;;16.35;70.80
4012;BME280;2020;48.682;9.024;2023-05-07T07:03:51;96366.47;;;16.50;70.99
4012;BME280;2020;48.682;9.024;2023-05-07T07:06:16;96363.13;;;16.70;68.98
4012;BME280;2020;48.682;9.024;2023-05-07T07:08:41;96370.84;;;16.78;69.18
4012;BME280;2020;48.682;9.024;2023-05-07T07:11:08;96369.63;;;16.74;67.98
4012;BME280;2020;48.682;9.024;2023-05-07T07:13:33;96371.84;;;16.77;66.90
4012;BME280;2020;48.682;9.024;2023-05-07T07:15:59;96363.41;;;16.88;66.96
4012;BME280;2020;48.682;9.024;2023-05-07T07:18:25;96364.47;;;17.01;66.87
4012;BME280;2020;48.682;9.024;2023-05-07T07:20:50;96362.91;;;17.33;67.12
4012;BME280;2020;48.682;9.024;2023-05-07T07:23:15;96364.13;;;17.44;65.79
4012;BME280;2020;48.682;9.024;2023-05-07T07:25:41;96362.06;;;17.19;65.58
4012;BME280;2020;48.682;9.024;2023-05-07T07:28:06;96361.66;;;17.09;66.37
4012;BME280;2020;48.682;9.024;2023-05-07T07:30:32;96361.47;;;17.17;67.39
4012;BME280;2020;48.682;9.024;2023-05-07T07:32:57;96362.53;;;17.50;65.71
4012;BME280;2020;48.682;9.024;2023-05-07T07:35:30;96360.88;;;17.69;66.15
4012;BME280;2020;48.682;9.024;2023-05-07T07:37:55;96364.53;;;17.81;65.90
4012;BME280;2020;48.682;9.024;2023-05-07T07:40:20;96356.03;;;17.73;64.56
4012;BME280;2020;48.682;9.024;2023-05-07T07:42:46;96363.72;;;17.74;63.51
4012;BME280;2020;48.682;9.024;2023-05-07T07:45:11;96368.97;;;17.94;65.47
4012;BME280;2020;48.682;9.024;2023-05-07T07:47:37;96366.56;;;17.93;63.98
4012;BME280;2020;48.682;9.024;2023-05-07T07:50:03;96372.41;;;17.81;64.25
4012;BME280;2020;48.682;9.024;2023-05-07T07:52:28;96368.16;;;17.87;64.20
4012;BME280;2020;48.682;9.024;2023-05-07T07:54:53;96372.41;;;17.68;64.20
4012;BME280;2020;48.682;9.024;2023-05-07T07:57:19;96370.63;;;18.02;63.91
4012;BME280;2020;48.682;9.024;2023-05-07T07:59:44;96373.03;;;18.10;62.00
4012;BME280;2020;48.682;9.024;2023-05-07T08:02:09;96369.28;;;18.52;61.69
4012;BME280;2020;48.682;9.024;2023-05-07T08:04:34;96375.69;;;18.69;61.60
4012;BME280;2020;48.682;9.024;2023-05-07T08:07:00;96372.63;;;19.18;58.49
4012;BME280;2020;48.682;9.024;2023-05-07T08:09:25;96381.56;;;19.17;58.22
4012;BME280;2020;48.682;9.024;2023-05-07T08:11:51;96372.47;;;19.45;57.99
4012;BME280;2020;48.682;9.024;2023-05-07T08:14:17;96382.59;;;19.48;57.52
4012;BME280;2020;48.682;9.024;2023-05-07T08:16:42;96370.22;;;19.74;56.16
4012;BME280;2020;48.682;9.024;2023-05-07T08:19:07;96385.19;;;19.80;56.22
4012;BME280;2020;48.682;9.024;2023-05-07T08:21:33;96374.38;;;19.88;57.40
4012;BME280;2020;48.682;9.024;2023-05-07T08:23:59;96362.53;;;19.98;55.86
4012;BME280;2020;48.682;9.024;2023-05-07T08:26:24;96374.38;;;19.88;54.27
4012;BME280;2020;48.682;9.024;2023-05-07T08:28:49;96372.56;;;19.32;57.51
4012;BME280;2020;48.682;9.024;2023-05-07T08:31:14;96372.16;;;19.85;55.45
4012;BME280;2020;48.682;9.024;2023-05-07T08:33:40;96361.94;;;19.96;56.06
4012;BME280;2020;48.682;9.024;2023-05-07T08:36:05;96370.19;;;20.25;55.19
4012;BME280;2020;48.682;9.024;2023-05-07T08:38:31;96361.53;;;20.36;54.27
4012;BME280;2020;48.682;9.024;2023-05-07T08:40:56;96367.47;;;20.50;53.75
4012;BME280;2020;48.682;9.024;2023-05-07T08:43:23;96367.56;;;20.62;52.42
4012;BME280;2020;48.682;9.024;2023-05-07T08:45:53;96365.13;;;20.60;52.40
4012;BME280;2020;48.682;9.024;2023-05-07T08:48:21;96360.22;;;20.83;53.10
4012;BME280;2020;48.682;9.024;2023-05-07T08:50:47;96370.59;;;20.96;50.61
4012;BME280;2020;48.682;9.024;2023-05-07T08:53:13;96363.16;;;21.05;51.68
4012;BME280;2020;48.682;9.024;2023-05-07T08:55:39;96372.13;;;21.04;50.52
4012;BME280;2020;48.682;9.024;2023-05-07T08:58:04;96370.44;;;21.10;50.16
4012;BME280;2020;48.682;9.024;2023-05-07T09:00:30;96363.97;;;21.06;49.88
4012;BME280;2020;48.682;9.024;2023-05-07T09:02:55;96372.22;;;21.40;50.11
4012;BME280;2020;48.682;9.024;2023-05-07T09:05:20;96371.41;;;21.27;49.22
4012;BME280;2020;48.682;9.024;2023-05-07T09:07:46;96373.91;;;21.22;50.44
4012;BME280;2020;48.682;9.024;2023-05-07T09:10:12;96359.25;;;21.50;50.44
4012;BME280;2020;48.682;9.024;2023-05-07T09:12:39;96370.94;;;21.30;49.61
4012;BME280;2020;48.682;9.024;2023-05-07T09:15:05;96365.13;;;21.52;51.34
4012;BME280;2020;48.682;9.024;2023-05-07T09:17:32;96362.72;;;21.62;49.88
4012;BME280;2020;48.682;9.024;2023-05-07T09:20:05;96350.59;;;21.43;50.09
4012;BME280;2020;48.682;9.024;2023-05-07T09:22:36;96352.38;;;21.73;50.06
4012;BME280;2020;48.682;9.024;2023-05-07T09:25:01;96356.47;;;21.87;49.48
4012;BME280;2020;48.682;9.024;2023-05-07T09:27:26;96355.28;;;22.19;49.26
4012;BME280;2020;48.682;9.024;2023-05-07T09:29:52;96361.16;;;22.09;48.79
4012;BME280;2020;48.682;9.024;2023-05-07T09:32:17;96349.19;;;22.18;49.14
4012;BME280;2020;48.682;9.024;2023-05-07T09:34:42;96348.38;;;21.94;49.43
4012;BME280;2020;48.682;9.024;2023-05-07T09:37:08;96354.81;;;21.98;48.14
4012;BME280;2020;48.682;9.024;2023-05-07T09:39:47;96352.94;;;22.34;48.54
4012;BME280;2020;48.682;9.024;2023-05-07T09:42:13;96346.81;;;22.58;48.26
4012;BME280;2020;48.682;9.024;2023-05-07T09:44:43;96347.75;;;22.52;48.00
4012;BME280;2020;48.682;9.024;2023-05-07T09:47:08;96350.59;;;22.74;47.71
4012;BME280;2020;48.682;9.024;2023-05-07T09:49:37;96354.75;;;22.70;47.76
4012;BME280;2020;48.682;9.024;2023-05-07T09:52:04;96352.78;;;22.65;47.20
4012;BME280;2020;48.682;9.024;2023-05-07T09:54:32;96346.44;;;22.95;47.44
4012;BME280;2020;48.682;9.024;2023-05-07T09:56:58;96351.94;;;22.76;46.46
4012;BME280;2020;48.682;9.024;2023-05-07T09:59:25;96349.00;;;22.90;46.51
4012;BME280;2020;48.682;9.024;2023-05-07T10:01:51;96342.19;;;23.23;45.97
4012;BME280;2020;48.682;9.024;2023-05-07T10:04:17;96345.13;;;23.39;45.06
4012;BME280;2020;48.682;9.024;2023-05-07T10:06:44;96335.25;;;22.93;46.07
4012;BME280;2020;48.682;9.024;2023-05-07T10:09:09;96329.56;;;23.01;48.46
4012;BME280;2020;48.682;9.024;2023-05-07T10:11:36;96332.97;;;23.14;45.83
4012;BME280;2020;48.682;9.024;2023-05-07T10:14:03;96325.00;;;23.43;44.99
4012;BME280;2020;48.682;9.024;2023-05-07T10:16:35;96323.53;;;23.35;44.99
4012;BME280;2020;48.682;9.024;2023-05-07T10:19:05;96318.06;;;23.76;44.19
4012;BME280;2020;48.682;9.024;2023-05-07T10:21:34;96317.09;;;23.65;44.81
4012;BME280;2020;48.682;9.024;2023-05-07T10:24:13;96311.13;;;23.75;43.77
4012;BME280;2020;48.682;9.024;2023-05-07T10:26:47;96316.44;;;23.75;44.54
4012;BME280;2020;48.682;9.024;2023-05-07T10:32:26;96307.84;;;23.68;43.94
4012;BME280;2020;48.682;9.024;2023-05-07T10:34:56;96315.97;;;23.61;44.06
4012;BME280;2020;48.682;9.024;2023-05-07T10:37:24;96314.66;;;23.98;43.28
4012;BME280;2020;48.682;9.024;2023-05-07T10:39:50;96312.84;;;24.20;43.17
4012;BME280;2020;48.682;9.024;2023-05-07T10:42:16;96314.38;;;24.16;42.91
4012;BME280;2020;48.682;9.024;2023-05-07T10:44:42;96310.13;;;24.15;42.67
4012;BME280;2020;48.682;9.024;2023-05-07T10:47:11;96315.69;;;23.97;42.77
4012;BME280;2020;48.682;9.024;2023-05-07T10:54:41;96304.22;;;23.74;40.61
4012;BME280;2020;48.682;9.024;2023-05-07T10:59:53;96292.84;;;24.40;40.72
4012;BME280;2020;48.682;9.024;2023-05-07T11:02:18;96292.44;;;24.04;41.34
4012;BME280;2020;48.682;9.024;2023-05-07T11:04:45;96297.25;;;24.07;40.89
4012;BME280;2020;48.682;9.024;2023-05-07T11:07:30;96285.13;;;24.16;41.28
4012;BME280;2020;48.682;9.024;2023-05-07T11:09:57;96292.50;;;24.53;41.13
4012;BME280;2020;48.682;9.024;2023-05-07T11:15:01;96280.84;;;24.82;41.10
4012;BME280;2020;48.682;9.024;2023-05-07T11:17:26;96290.34;;;25.00;39.62
4012;BME280;2020;48.682;9.024;2023-05-07T11:19:55;96283.13;;;25.01;39.46
4012;BME280;2020;48.682;9.024;2023-05-07T11:24:55;96284.84;;;24.13;42.36
4012;BME280;2020;48.682;9.024;2023-05-07T11:27:24;96284.63;;;23.97;42.98
4012;BME280;2020;48.682;9.024;2023-05-07T11:29:50;96292.66;;;23.46;43.96
4012;BME280;2020;48.682;9.024;2023-05-07T11:32:15;96296.19;;;23.34;44.13
4012;BME280;2020;48.682;9.024;2023-05-07T11:34:47;96283.78;;;23.23;44.36
4012;BME280;2020;48.682;9.024;2023-05-07T11:37:17;96287.28;;;23.12;46.07
4012;BME280;2020;48.682;9.024;2023-05-07T11:39:42;96278.19;;;23.36;44.79
4012;BME280;2020;48.682;9.024;2023-05-07T11:42:25;96282.53;;;23.43;45.73
4012;BME280;2020;48.682;9.024;2023-05-07T11:44:50;96282.63;;;23.19;43.79
4012;BME280;2020;48.682;9.024;2023-05-07T11:47:20;96292.13;;;23.15;45.44
4012;BME280;2020;48.682;9.024;2023-05-07T11:49:49;96303.22;;;23.12;44.38
4012;BME280;2020;48.682;9.024;2023-05-07T11:52:16;96304.16;;;23.05;44.52
4012;BME280;2020;48.682;9.024;2023-05-07T11:54:49;96302.38;;;22.94;43.64
4012;BME280;2020;48.682;9.024;2023-05-07T11:57:15;96300.13;;;22.86;42.88
4012;BME280;2020;48.682;9.024;2023-05-07T11:59:40;96324.06;;;22.09;48.17
4012;BME280;2020;48.682;9.024;2023-05-07T12:02:06;96323.38;;;21.78;49.72
4012;BME280;2020;48.682;9.024;2023-05-07T12:04:32;96310.16;;;21.12;52.04
4012;BME280;2020;48.682;9.024;2023-05-07T12:06:57;96319.41;;;20.91;51.31
4012;BME280;2020;48.682;9.024;2023-05-07T12:09:23;96309.25;;;20.20;46.81
4012;BME280;2020;48.682;9.024;2023-05-07T12:11:48;96314.69;;;19.81;43.92
4012;BME280;2020;48.682;9.024;2023-05-07T12:14:14;96321.75;;;19.43;44.23
4012;BME280;2020;48.682;9.024;2023-05-07T12:16:41;96318.50;;;19.41;44.39
4012;BME280;2020;48.682;9.024;2023-05-07T12:19:07;96323.25;;;19.57;44.81
4012;BME280;2020;48.682;9.024;2023-05-07T12:21:34;96337.78;;;19.67;44.33
4012;BME280;2020;48.682;9.024;2023-05-07T12:23:59;96342.72;;;19.31;45.73
4012;BME280;2020;48.682;9.024;2023-05-07T12:26:25;96341.78;;;19.25;46.04
4012;BME280;2020;48.682;9.024;2023-05-07T12:28:50;96351.63;;;19.37;47.56
4012;BME280;2020;48.682;9.024;2023-05-07T12:31:16;96358.63;;;19.50;48.09
4012;BME280;2020;48.682;9.024;2023-05-07T12:33:42;96369.94;;;19.32;48.19
4012;BME280;2020;48.682;9.024;2023-05-07T12:36:07;96384.50;;;18.95;48.95
4012;BME280;2020;48.682;9.024;2023-05-07T12:38:40;96401.00;;;18.11;53.32
4012;BME280;2020;48.682;9.024;2023-05-07T12:41:10;96405.41;;;17.77;60.85
4012;BME280;2020;48.682;9.024;2023-05-07T12:43:35;96425.13;;;16.99;66.42
4012;BME280;2020;48.682;9.024;2023-05-07T12:46:04;96423.34;;;16.64;68.64
4012;BME280;2020;48.682;9.024;2023-05-07T12:48:29;96429.66;;;16.42;78.31
4012;BME280;2020;48.682;9.024;2023-05-07T12:50:56;96430.16;;;15.95;86.24
4012;BME280;2020;48.682;9.024;2023-05-07T12:53:24;96429.75;;;15.91;87.65
4012;BME280;2020;48.682;9.024;2023-05-07T12:55:51;96425.53;;;15.75;89.72
4012;BME280;2020;48.682;9.024;2023-05-07T13:00:44;96418.06;;;15.94;87.21
4012;BME280;2020;48.682;9.024;2023-05-07T13:03:10;96418.91;;;16.01;84.68
4012;BME280;2020;48.682;9.024;2023-05-07T13:05:36;96421.63;;;16.15;83.70
4012;BME280;2020;48.682;9.024;2023-05-07T13:08:01;96431.81;;;16.31;87.48
4012;BME280;2020;48.682;9.024;2023-05-07T13:10:27;96432.41;;;15.98;85.86
4012;BME280;2020;48.682;9.024;2023-05-07T13:12:52;96419.44;;;15.68;87.70
4012;BME280;2020;48.682;9.024;2023-05-07T13:15:18;96417.16;;;15.87;91.06
4012;BME280;2020;48.682;9.024;2023-05-07T13:17:44;96423.59;;;16.06;92.41
4012;BME280;2020;48.682;9.024;2023-05-07T13:20:10;96427.56;;;16.30;93.89
4012;BME280;2020;48.682;9.024;2023-05-07T13:22:36;96428.81;;;16.34;93.38
4012;BME280;2020;48.682;9.024;2023-05-07T13:25:01;96429.63;;;16.35;95.40
4012;BME280;2020;48.682;9.024;2023-05-07T13:27:27;96450.66;;;16.35;95.38
4012;BME280;2020;48.682;9.024;2023-05-07T13:29:52;96459.09;;;16.30;94.53
4012;BME280;2020;48.682;9.024;2023-05-07T13:32:17;96465.72;;;16.26;92.33
4012;BME280;2020;48.682;9.024;2023-05-07T13:34:43;96471.19;;;16.25;91.02